Time;durP1;ratioP1;P1;durP2;ratioP2;P2;SDS_P1;SDS_P2;PMS_P1;PMS_P2;Temp;Humidity;BMP_temperature;BMP_pressure;BME280_temperature;BME280_humidity;BME280_pressure;Samples;Min_cycle;Max_cycle;Signal;HPM_P1;HPM_P2
2021/10/13 00:02:13;;;;;;;3.22;2.45;;;;;;;4.07;87.70;99203.13;1789944;79;21016;-62
2021/10/13 00:04:44;;;;;;;3.65;2.80;;;;;;;4.12;87.86;99190.47;1777017;79;21116;-63
2021/10/13 00:07:11;;;;;;;9.40;6.85;;;;;;;4.22;88.05;99190.58;1748534;81;20990;-63
2021/10/13 00:09:45;;;;;;;8.40;5.92;;;;;;;4.32;88.10;99192.45;1771800;79;20934;-63
2021/10/13 00:12:13;;;;;;;3.58;3.00;;;;;;;4.38;88.07;99188.84;1762442;81;20926;-63
2021/10/13 00:14:43;;;;;;;4.45;2.85;;;;;;;4.43;88.06;99184.38;1767158;79;21687;-64
2021/10/13 00:17:11;;;;;;;2.10;1.57;;;;;;;4.49;88.08;99188.06;1765618;80;21111;-63
2021/10/13 00:19:42;;;;;;;2.65;1.50;;;;;;;4.51;88.05;99188.87;1769676;80;21540;-63
2021/10/13 00:22:10;;;;;;;2.12;1.70;;;;;;;4.54;88.05;99186.19;1754595;81;21060;-62
2021/10/13 00:24:39;;;;;;;3.72;2.42;;;;;;;4.58;88.12;99189.06;1766561;79;20999;-62
2021/10/13 00:27:08;;;;;;;4.12;2.77;;;;;;;4.61;88.06;99200.59;1782227;79;21052;-62
2021/10/13 00:29:38;;;;;;;4.17;3.35;;;;;;;4.59;88.00;99186.86;1763277;79;20992;-62
2021/10/13 00:32:07;;;;;;;6.53;4.87;;;;;;;4.62;88.11;99189.80;1767753;79;20957;-62
2021/10/13 00:34:35;;;;;;;5.00;1.77;;;;;;;4.65;88.16;99184.10;1780798;79;20923;-62
2021/10/13 00:37:03;;;;;;;2.45;1.40;;;;;;;4.68;88.21;99189.17;1773713;79;21078;-62
2021/10/13 00:39:31;;;;;;;1.90;1.27;;;;;;;4.66;88.04;99192.25;1774882;79;21075;-62
2021/10/13 00:41:58;;;;;;;2.95;2.30;;;;;;;4.68;88.21;99189.17;1768027;79;21052;-62
2021/10/13 00:44:25;;;;;;;5.05;2.90;;;;;;;4.74;88.27;99195.05;1777103;79;21079;-62
2021/10/13 00:46:52;;;;;;;7.92;3.95;;;;;;;4.76;88.28;99197.99;1761841;79;20984;-63
2021/10/13 00:49:22;;;;;;;3.25;1.52;;;;;;;4.80;88.32;99202.61;1773211;79;21044;-62
2021/10/13 00:51:50;;;;;;;3.10;1.27;;;;;;;4.82;88.28;99195.66;1765796;79;24511;-62
2021/10/13 00:54:17;;;;;;;3.15;1.02;;;;;;;4.82;88.25;99200.83;1775054;79;21102;-62
2021/10/13 00:56:47;;;;;;;1.30;0.80;;;;;;;4.82;88.23;99209.88;1748141;81;21075;-62
2021/10/13 00:59:14;;;;;;;1.87;1.10;;;;;;;4.82;88.28;99213.77;1754345;81;20985;-62
2021/10/13 01:02:12;;;;;;;1.02;0.78;;;;;;;4.83;88.39;99207.69;1728057;81;21101;-62
2021/10/13 01:05:02;;;;;;;1.05;0.70;;;;;;;4.88;88.52;99208.39;1761082;79;21002;-63
2021/10/13 01:08:01;;;;;;;1.70;0.78;;;;;;;4.90;88.55;99203.98;1763472;79;21145;-63
2021/10/13 01:10:58;;;;;;;1.45;0.90;;;;;;;4.94;88.63;99210.77;1763061;79;20949;-63
2021/10/13 01:13:38;;;;;;;1.60;0.90;;;;;;;4.97;88.67;99210.67;1787012;79;21026;-63
2021/10/13 01:16:42;;;;;;;1.42;0.75;;;;;;;5.03;88.82;99215.63;1775766;79;21032;-63
2021/10/13 01:20:36;;;;;;;2.45;1.00;;;;;;;5.14;88.80;99218.72;1856608;75;22712;-62
2021/10/13 01:23:26;;;;;;;1.75;0.93;;;;;;;5.14;88.77;99216.13;1781907;78;20933;-63
2021/10/13 01:26:22;;;;;;;1.77;0.82;;;;;;;5.18;88.68;99209.55;1783613;78;21070;-61
2021/10/13 01:28:54;;;;;;;1.57;1.10;;;;;;;5.18;88.65;99216.02;1778010;78;21064;-63
2021/10/13 01:31:26;;;;;;;3.80;0.88;;;;;;;5.21;88.71;99223.68;1782584;77;21619;-63
2021/10/13 01:34:15;;;;;;;3.20;0.70;;;;;;;5.21;88.66;99227.56;1785250;78;21148;-63
2021/10/13 01:36:55;;;;;;;3.67;0.75;;;;;;;5.21;88.61;99228.86;1783677;78;21032;-62
2021/10/13 01:39:20;;;;;;;1.40;0.90;;;;;;;5.14;88.49;99227.77;1757835;78;22022;-63
2021/10/13 01:41:47;;;;;;;;;;;;;;;5.14;88.61;99231.66;1787969;78;20950;-63
2021/10/13 01:44:20;;;;;;;1.77;1.07;;;;;;;5.15;88.68;99229.48;1779753;78;20156;-63
2021/10/13 01:46:48;;;;;;;1.22;0.90;;;;;;;5.16;88.72;99235.05;1715784;80;21099;-63
2021/10/13 01:49:18;;;;;;;1.77;1.12;;;;;;;5.19;88.70;99235.85;1717718;81;20974;-63
2021/10/13 01:51:47;;;;;;;1.25;0.80;;;;;;;5.18;88.67;99234.98;1744019;80;21235;-63
2021/10/13 01:54:20;;;;;;;2.08;1.07;;;;;;;5.18;88.68;99230.26;1745888;80;21631;-63
2021/10/13 01:56:49;;;;;;;1.98;1.37;;;;;;;5.15;88.66;99225.61;1748280;80;20990;-63
2021/10/13 02:00:52;;;;;;;6.58;1.00;;;;;;;5.15;88.60;99233.37;1866913;76;22237;-62
2021/10/13 02:03:28;;;;;;;2.33;1.27;;;;;;;5.06;88.59;99236.23;1844108;77;20882;-63
2021/10/13 02:06:01;;;;;;;2.35;0.98;;;;;;;4.98;88.51;99227.88;1805468;77;21067;-63
2021/10/13 02:11:16;;;;;;;7.05;4.33;;;;;;;4.91;88.64;99239.33;1841313;76;22697;-62
2021/10/13 02:15:53;;;;;;;2.47;1.40;;;;;;;4.89;88.78;99241.11;1854127;76;22765;-61
2021/10/13 02:18:24;;;;;;;3.58;1.35;;;;;;;4.82;88.79;99247.39;1821333;77;20923;-63
2021/10/13 02:20:54;;;;;;;2.08;1.10;;;;;;;4.82;88.83;99247.39;1810918;77;21085;-62
2021/10/13 02:23:23;;;;;;;3.02;1.10;;;;;;;4.82;88.78;99259.87;1816413;78;21013;-62
2021/10/13 02:25:55;;;;;;;3.98;1.90;;;;;;;4.82;88.84;99259.03;1821752;77;21557;-62
2021/10/13 02:28:33;;;;;;;2.90;0.85;;;;;;;4.85;88.95;99260.22;1815234;77;21023;-62
2021/10/13 02:31:01;;;;;;;2.22;0.60;;;;;;;4.87;88.92;99261.87;1777842;78;20979;-62
2021/10/13 02:33:28;;;;;;;1.37;0.60;;;;;;;4.90;88.90;99260.90;1815457;77;21487;-62
2021/10/13 02:35:59;;;;;;;2.95;2.00;;;;;;;4.94;89.04;99261.22;1799078;78;21015;-63
2021/10/13 02:38:26;;;;;;;2.05;0.95;;;;;;;4.98;89.07;99257.62;1817206;77;21557;-62
2021/10/13 02:40:56;;;;;;;1.42;0.57;;;;;;;5.02;89.06;99260.53;1821422;78;21018;-62
2021/10/13 02:43:26;;;;;;;0.60;0.50;;;;;;;5.06;89.12;99259.98;1816049;77;21502;-62
2021/10/13 02:46:23;;;;;;;0.53;0.40;;;;;;;5.10;89.19;99261.13;1811730;77;21414;-63
2021/10/13 02:49:25;;;;;;;0.72;0.40;;;;;;;5.14;89.15;99263.17;1816571;77;20955;-62
2021/10/13 02:52:22;;;;;;;1.12;0.40;;;;;;;5.14;89.09;99266.59;1819882;77;20975;-62
2021/10/13 02:55:19;;;;;;;1.72;0.40;;;;;;;5.17;89.07;99265.65;1815592;77;22717;-63
2021/10/13 02:58:03;;;;;;;1.35;0.40;;;;;;;5.20;89.06;99273.77;1819827;77;20942;-63
2021/10/13 03:00:34;;;;;;;0.53;0.30;;;;;;;5.20;89.12;99264.25;1814450;77;21045;-63
2021/10/13 03:03:12;;;;;;;0.40;0.20;;;;;;;5.22;89.11;99264.22;1818084;77;20986;-63
2021/10/13 03:05:42;;;;;;;1.60;0.30;;;;;;;5.20;89.28;99266.84;1816316;77;20886;-63
2021/10/13 03:08:14;;;;;;;3.60;0.30;;;;;;;5.22;89.43;99269.39;1818514;77;21018;-62
2021/10/13 03:10:49;;;;;;;0.20;0.20;;;;;;;5.21;89.32;99267.68;1817317;77;21007;-63
2021/10/13 03:13:23;;;;;;;1.25;0.40;;;;;;;5.19;89.28;99274.67;1821542;77;20987;-62
2021/10/13 03:15:53;;;;;;;0.95;0.47;;;;;;;5.19;89.32;99281.14;1825033;77;21051;-62
2021/10/13 03:18:22;;;;;;;2.62;0.30;;;;;;;5.19;89.37;99287.16;1826770;77;21573;-62
2021/10/13 03:20:51;;;;;;;2.00;0.40;;;;;;;5.19;89.40;99292.79;1831047;77;20975;-62
2021/10/13 03:23:21;;;;;;;0.93;0.40;;;;;;;5.22;89.52;99287.52;1826551;77;21527;-62
2021/10/13 03:25:51;;;;;;;2.55;0.68;;;;;;;5.24;89.52;99290.91;1825131;77;22080;-63
2021/10/13 03:28:19;;;;;;;1.02;0.60;;;;;;;5.31;89.61;99287.20;1824725;77;21447;-62
2021/10/13 03:30:46;;;;;;;1.45;0.82;;;;;;;5.38;89.66;99284.83;1824327;77;21001;-62
2021/10/13 03:33:15;;;;;;;1.12;0.65;;;;;;;5.43;89.67;99284.20;1820890;77;21071;-62
2021/10/13 03:35:43;;;;;;;1.22;0.72;;;;;;;5.48;89.68;99300.44;1830356;77;21015;-62
2021/10/13 03:38:11;;;;;;;2.75;1.50;;;;;;;5.49;89.63;99286.61;1826025;77;21791;-62
2021/10/13 03:40:38;;;;;;;2.12;1.85;;;;;;;5.51;89.61;99287.38;1815000;77;20991;-63
2021/10/13 03:43:10;;;;;;;1.12;0.70;;;;;;;5.55;89.62;99288.15;1825473;76;21014;-62
2021/10/13 03:45:40;;;;;;;1.30;0.72;;;;;;;5.58;89.61;99294.52;1822033;76;21481;-62
2021/10/13 03:48:11;;;;;;;1.57;0.47;;;;;;;5.52;89.45;99294.27;1821856;77;21006;-62
2021/10/13 03:50:39;;;;;;;3.00;0.50;;;;;;;5.48;89.40;99288.78;1821291;77;21839;-63
2021/10/13 03:53:06;;;;;;;1.47;0.53;;;;;;;5.45;89.42;99293.23;1804240;76;21042;-63
2021/10/13 03:55:35;;;;;;;5.70;1.02;;;;;;;5.42;89.52;99283.81;1823283;77;20932;-63
2021/10/13 03:58:03;;;;;;;0.82;0.68;;;;;;;5.37;89.45;99294.77;1827206;77;21501;-63
2021/10/13 04:00:32;;;;;;;;;;;;;;;5.35;89.60;99291.41;1819189;77;21018;-62
2021/10/13 04:02:59;;;;;;;0.40;0.40;;;;;;;5.35;89.64;99296.58;1829593;77;21488;-62
2021/10/13 04:05:28;;;;;;;1.72;0.60;;;;;;;5.31;89.58;99297.56;1826019;77;20995;-62
2021/10/13 04:07:55;;;;;;;2.22;0.78;;;;;;;5.30;89.65;99301.05;1748956;80;22331;-62
2021/10/13 04:10:23;;;;;;;3.27;0.50;;;;;;;5.29;89.70;99304.09;1776951;79;20997;-62
2021/10/13 04:12:50;;;;;;;0.88;0.47;;;;;;;5.31;89.80;99305.33;1764872;80;21526;-62
2021/10/13 04:15:17;;;;;;;1.27;0.40;;;;;;;5.34;89.82;99310.40;1767510;80;21951;-63
2021/10/13 04:17:54;;;;;;;2.58;1.67;;;;;;;5.35;89.84;99319.88;1770349;80;21483;-63
2021/10/13 04:20:24;;;;;;;1.52;0.60;;;;;;;5.38;89.89;99319.78;1768851;79;20891;-62
2021/10/13 04:22:54;;;;;;;1.40;0.62;;;;;;;5.39;89.84;99313.70;1771099;79;21013;-63
2021/10/13 04:25:23;;;;;;;2.55;1.00;;;;;;;5.39;89.86;99310.65;1765295;80;21009;-62
2021/10/13 04:27:51;;;;;;;0.98;0.65;;;;;;;5.41;89.85;99306.73;1768158;78;21103;-63
2021/10/13 04:30:21;;;;;;;1.60;0.85;;;;;;;5.42;89.83;99310.16;1761152;78;21026;-62
2021/10/13 04:32:49;;;;;;;3.62;1.65;;;;;;;5.40;89.84;99310.20;1755731;78;21019;-63
2021/10/13 04:35:16;;;;;;;1.12;0.72;;;;;;;5.41;89.89;99309.32;1776570;77;21570;-62
2021/10/13 04:37:45;;;;;;;3.47;1.10;;;;;;;5.42;89.87;99317.92;1771999;78;20942;-62
2021/10/13 04:40:15;;;;;;;0.87;0.50;;;;;;;5.41;89.84;99320.97;1760749;78;21630;-63
2021/10/13 04:42:47;;;;;;;2.12;1.00;;;;;;;5.42;89.89;99317.47;1760578;78;21005;-63
2021/10/13 04:45:17;;;;;;;0.95;0.50;;;;;;;5.39;89.77;99324.05;1756134;78;20978;-63
2021/10/13 04:50:32;;;;;;;3.27;0.93;;;;;;;5.41;89.90;99330.03;1743973;80;21005;-62
2021/10/13 04:53:04;;;;;;;2.22;0.80;;;;;;;5.43;89.89;99325.63;1763568;78;21061;-62
2021/10/13 04:55:33;;;;;;;1.80;1.20;;;;;;;5.45;89.92;99327.73;1760814;78;21576;-63
2021/10/13 04:58:13;;;;;;;3.45;1.00;;;;;;;5.45;89.91;99329.02;1773204;78;20977;-63
2021/10/13 05:00:42;;;;;;;1.60;0.80;;;;;;;5.43;89.83;99325.63;1759093;80;21075;-63
2021/10/13 05:03:13;;;;;;;0.40;0.40;;;;;;;5.40;89.68;99336.09;1771808;80;21584;-63
2021/10/13 05:05:48;;;;;;;1.50;0.60;;;;;;;5.35;89.74;99336.25;1766415;80;21275;-63
2021/10/13 05:08:27;;;;;;;1.95;0.95;;;;;;;5.33;89.72;99343.67;1737129;81;20993;-63
2021/10/13 05:11:03;;;;;;;3.42;0.62;;;;;;;5.31;89.83;99349.33;1732202;81;21132;-62
2021/10/13 05:13:35;;;;;;;2.27;1.00;;;;;;;5.32;89.88;99351.02;1707688;82;21405;-62
2021/10/13 05:16:02;;;;;;;1.50;1.00;;;;;;;5.33;89.93;99354.03;1729404;80;21146;-62
2021/10/13 05:18:32;;;;;;;2.52;1.60;;;;;;;5.34;89.91;99358.30;1740324;79;21168;-62
2021/10/13 05:20:59;;;;;;;5.30;2.05;;;;;;;5.35;89.94;99366.48;1740068;80;21018;-63
2021/10/13 05:23:36;;;;;;;8.03;5.83;;;;;;;5.32;89.82;99374.31;1739057;80;21049;-62
2021/10/13 05:26:06;;;;;;;2.90;1.80;;;;;;;5.33;89.95;99371.69;1741154;80;20990;-62
2021/10/13 05:28:37;;;;;;;4.67;1.77;;;;;;;5.35;89.98;99377.68;1739621;80;21018;-61
2021/10/13 05:31:15;;;;;;;8.13;2.17;;;;;;;5.37;90.00;99376.31;1740076;80;21129;-62
2021/10/13 05:33:44;;;;;;;5.22;2.00;;;;;;;5.41;90.05;99374.05;1737692;80;21045;-62
2021/10/13 05:36:16;;;;;;;2.90;1.67;;;;;;;5.42;90.02;99377.48;1714536;82;21655;-62
2021/10/13 05:38:50;;;;;;;7.00;1.40;;;;;;;5.47;90.10;99386.80;1712107;82;27113;-62
2021/10/13 05:41:19;;;;;;;3.27;1.87;;;;;;;5.49;89.99;99384.14;1717706;81;21084;-62
2021/10/13 05:43:47;;;;;;;3.30;1.40;;;;;;;5.47;89.86;99388.55;1721074;81;21646;-62
2021/10/13 05:46:14;;;;;;;6.37;1.20;;;;;;;5.45;89.81;99395.05;1723049;80;21049;-61
2021/10/13 05:48:48;;;;;;;2.85;0.90;;;;;;;5.45;89.76;99392.46;1725509;81;21018;-62
2021/10/13 05:51:15;;;;;;;5.30;1.07;;;;;;;5.39;89.52;99399.13;1716224;82;21155;-62
2021/10/13 05:53:49;;;;;;;4.27;1.77;;;;;;;5.29;89.40;99400.30;1720572;81;21160;-62
2021/10/13 05:56:20;;;;;;;2.75;1.75;;;;;;;5.24;89.59;99397.88;1721765;82;21518;-61
2021/10/13 05:58:51;;;;;;;3.42;2.75;;;;;;;5.21;89.49;99400.98;1725402;81;21612;-62
2021/10/13 06:01:19;;;;;;;2.30;1.75;;;;;;;5.14;89.48;99406.80;1721797;80;21168;-62
2021/10/13 06:03:51;;;;;;;2.87;2.00;;;;;;;5.10;89.35;99411.69;1719022;81;21232;-62
2021/10/13 06:06:25;;;;;;;3.12;1.90;;;;;;;5.09;89.61;99408.67;1774570;79;21031;-62
2021/10/13 06:08:55;;;;;;;6.28;1.50;;;;;;;5.12;89.66;99422.36;1769555;79;22098;-62
2021/10/13 06:11:22;;;;;;;3.50;1.70;;;;;;;5.16;89.77;99421.39;1766788;80;20950;-62
2021/10/13 06:13:49;;;;;;;2.00;1.25;;;;;;;5.54;90.32;99417.22;1761737;79;21094;-62
2021/10/13 06:16:24;;;;;;;2.12;1.40;;;;;;;5.90;90.18;99415.18;1781928;78;20961;-62
2021/10/13 06:18:54;;;;;;;1.85;1.10;;;;;;;6.31;89.90;99416.87;1782952;80;20961;-62
2021/10/13 06:21:25;;;;;;;1.80;1.22;;;;;;;6.70;89.22;99420.25;1767856;79;21958;-62
2021/10/13 06:23:56;;;;;;;2.98;1.30;;;;;;;7.12;89.16;99418.27;1750094;80;21503;-62
2021/10/13 06:26:26;;;;;;;3.58;1.20;;;;;;;7.63;89.13;99424.93;1730188;80;20994;-62
2021/10/13 06:28:56;;;;;;;2.17;1.27;;;;;;;8.15;89.14;99420.20;1785799;80;21067;-62
2021/10/13 06:31:27;;;;;;;2.83;0.98;;;;;;;8.59;88.34;99423.96;1778331;80;21028;-62
2021/10/13 06:33:57;;;;;;;2.17;1.20;;;;;;;8.86;87.83;99427.58;1783784;78;22206;-62
2021/10/13 06:39:06;;;;;;;6.90;1.37;;;;;;;9.54;88.06;99435.25;1750225;80;21151;-62
2021/10/13 06:41:33;;;;;;;1.60;0.85;;;;;;;9.78;87.49;99437.15;1763428;78;20985;-63
2021/10/13 06:44:04;;;;;;;1.57;0.80;;;;;;;9.90;86.88;99440.92;1773838;79;22262;-63
2021/10/13 06:46:42;;;;;;;1.67;1.00;;;;;;;10.09;87.29;99440.40;1781316;78;21867;-62
2021/10/13 06:49:09;;;;;;;2.20;1.10;;;;;;;10.19;87.00;99436.85;1763712;78;20989;-62
2021/10/13 06:51:42;;;;;;;1.92;1.72;;;;;;;10.48;87.05;99441.95;1773020;78;20981;-62
2021/10/13 06:54:10;;;;;;;1.72;1.22;;;;;;;10.48;87.05;99441.95;1771332;78;21011;-62
2021/10/13 06:56:42;;;;;;;2.05;1.10;;;;;;;10.64;86.98;99446.36;1780818;78;21491;-62
2021/10/13 06:59:25;;;;;;;4.70;3.58;;;;;;;10.67;86.45;99447.52;1762403;78;20906;-62
2021/10/13 07:01:48;;;;;;;1.87;1.02;;;;;;;10.34;86.08;99447.50;1772033;79;20995;-62
2021/10/13 07:04:16;;;;;;;2.00;1.10;;;;;;;10.20;86.22;99449.47;1788125;79;21582;-62
2021/10/13 07:06:42;;;;;;;3.08;1.05;;;;;;;9.84;85.74;99454.27;1784023;78;20937;-63
2021/10/13 07:09:10;;;;;;;1.80;1.30;;;;;;;9.66;86.55;99449.92;1785875;79;21480;-62
2021/10/13 07:11:40;;;;;;;2.42;1.27;;;;;;;9.47;86.76;99469.05;1762533;80;20988;-62
2021/10/13 07:14:11;;;;;;;3.35;1.40;;;;;;;9.45;87.43;99467.43;1742856;80;21129;-63
2021/10/13 07:16:45;;;;;;;2.00;1.50;;;;;;;9.37;87.65;99477.73;1766890;79;20978;-62
2021/10/13 07:19:10;;;;;;;2.33;1.60;;;;;;;9.37;88.00;99475.59;1741047;80;21100;-63
2021/10/13 07:21:40;;;;;;;4.17;1.57;;;;;;;9.40;88.27;99476.75;1768615;79;21610;-62
2021/10/13 07:24:08;;;;;;;2.40;1.42;;;;;;;9.44;88.20;99474.84;1766159;80;21234;-63
2021/10/13 07:26:44;;;;;;;4.75;1.45;;;;;;;9.29;87.20;99477.70;1767142;79;21045;-63
2021/10/13 07:29:09;;;;;;;3.75;1.87;;;;;;;9.11;87.48;99484.14;1769732;79;20946;-63
2021/10/13 07:31:38;;;;;;;3.83;2.15;;;;;;;9.21;88.16;99482.42;1732638;80;21216;-63
2021/10/13 07:34:05;;;;;;;2.77;2.22;;;;;;;9.18;87.84;99485.54;1773325;79;20990;-63
2021/10/13 07:36:34;;;;;;;6.10;2.17;;;;;;;9.04;87.02;99492.30;1766178;79;21030;-64
2021/10/13 07:39:01;;;;;;;7.70;1.72;;;;;;;8.79;87.12;99483.41;1769424;79;20994;-63
2021/10/13 07:41:49;;;;;;;3.25;2.08;;;;;;;8.79;87.84;99493.83;1672846;84;21192;-63
2021/10/13 07:44:18;;;;;;;7.62;1.82;;;;;;;8.90;88.17;99492.91;1668560;84;21058;-64
2021/10/13 07:46:46;;;;;;;6.72;1.60;;;;;;;8.94;87.89;99491.41;1649977;84;21226;-64
2021/10/13 07:49:14;;;;;;;3.77;1.40;;;;;;;9.07;88.30;99487.78;1632390;85;21491;-63
2021/10/13 07:51:45;;;;;;;1.92;1.10;;;;;;;9.26;88.38;99488.27;1669203;84;20997;-63
2021/10/13 07:54:13;;;;;;;1.40;0.70;;;;;;;9.36;87.83;99500.81;1675539;84;20950;-62
2021/10/13 07:56:42;;;;;;;1.42;0.75;;;;;;;9.40;86.89;99494.99;1673924;84;20950;-62
2021/10/13 07:59:17;;;;;;;1.52;0.60;;;;;;;9.15;86.43;99491.35;1649191;85;21022;-62
2021/10/13 08:01:48;;;;;;;0.88;0.50;;;;;;;9.03;86.36;99497.97;1649415;84;21189;-63
2021/10/13 08:04:16;;;;;;;0.75;0.50;;;;;;;8.89;86.20;99492.52;1672513;84;20967;-63
2021/10/13 08:06:49;;;;;;;2.55;0.85;;;;;;;9.03;85.97;99503.17;1674959;84;21501;-62
2021/10/13 08:09:17;;;;;;;0.60;0.50;;;;;;;9.24;86.95;99510.93;1673198;84;21035;-62
2021/10/13 08:11:47;;;;;;;2.67;0.47;;;;;;;9.36;84.23;99509.93;1668518;84;21050;-62
2021/10/13 08:14:15;;;;;;;1.40;0.57;;;;;;;9.21;84.66;99514.52;1674645;84;21642;-65
2021/10/13 08:16:50;;;;;;;3.75;0.50;;;;;;;9.04;84.55;99515.27;1674499;84;21112;-62
2021/10/13 08:19:15;;;;;;;1.20;0.70;;;;;;;8.83;84.26;99516.23;1672450;84;21344;-62
2021/10/13 08:21:42;;;;;;;1.12;0.60;;;;;;;8.71;85.00;99518.45;1669519;84;21845;-60
2021/10/13 08:24:09;;;;;;;1.32;0.70;;;;;;;8.81;85.14;99512.84;1641381;85;21174;-63
2021/10/13 08:26:57;;;;;;;2.87;0.80;;;;;;;8.99;85.68;99517.26;1640434;85;21092;-62
2021/10/13 08:29:10;;;;;;;1.92;0.80;;;;;;;9.17;85.90;99515.58;1632657;86;21029;-62
2021/10/13 08:31:40;;;;;;;1.37;0.82;;;;;;;9.17;83.82;99532.05;1668473;84;21028;-62
2021/10/13 08:34:11;;;;;;;3.00;0.90;;;;;;;9.17;84.96;99526.84;1669653;84;21215;-62
2021/10/13 08:36:35;;;;;;;1.90;0.80;;;;;;;9.37;85.35;99522.03;1659993;84;21590;-62
2021/10/13 08:39:03;;;;;;;7.22;1.10;;;;;;;9.55;84.50;99524.27;1667227;84;21390;-62
2021/10/13 08:41:30;;;;;;;1.72;0.80;;;;;;;9.75;85.49;99530.33;1667094;84;21085;-64
2021/10/13 08:43:57;;;;;;;1.70;0.50;;;;;;;9.96;84.74;99531.89;1668426;84;21087;-67
2021/10/13 08:46:24;;;;;;;22.52;4.62;;;;;;;9.78;82.78;99532.78;1670226;84;21749;-68
2021/10/13 08:48:51;;;;;;;3.40;0.90;;;;;;;9.95;83.99;99539.34;1669314;84;21068;-68
2021/10/13 08:51:18;;;;;;;1.32;0.55;;;;;;;9.80;79.72;99542.23;1669409;84;21124;-67
2021/10/13 08:53:44;;;;;;;3.50;0.68;;;;;;;9.51;80.36;99553.14;1703104;79;20968;-74
2021/10/13 08:56:11;;;;;;;2.33;0.72;;;;;;;9.12;80.08;99547.03;1705229;82;21047;-73
2021/10/13 08:58:41;;;;;;;1.77;0.70;;;;;;;8.86;81.12;99549.94;1695063;82;21594;-71
2021/10/13 09:01:14;;;;;;;1.72;0.72;;;;;;;8.71;81.84;99545.78;1690260;82;21024;-72
2021/10/13 09:03:48;;;;;;;5.33;1.42;;;;;;;8.59;82.59;99555.39;1726779;81;22367;-71
2021/10/13 09:06:24;;;;;;;24.82;4.47;;;;;;;8.55;83.12;99560.34;1718268;81;20922;-73
2021/10/13 09:09:12;;;;;;;3.70;1.00;;;;;;;8.42;83.39;99563.05;1721699;81;21115;-72
2021/10/13 09:11:47;;;;;;;2.40;0.90;;;;;;;8.35;83.67;99562.44;1732829;81;21496;-71
2021/10/13 09:14:19;;;;;;;2.80;0.88;;;;;;;8.25;83.69;99567.15;1726725;81;21587;-72
2021/10/13 09:17:10;;;;;;;1.80;0.82;;;;;;;8.21;83.92;99587.70;1725545;81;21119;-72
2021/10/13 09:19:49;;;;;;;2.58;1.17;;;;;;;8.16;83.87;99580.53;1725041;81;20945;-72
2021/10/13 09:22:19;;;;;;;2.65;1.10;;;;;;;8.15;84.11;99580.14;1726592;81;21076;-72
2021/10/13 09:24:52;;;;;;;2.10;0.88;;;;;;;8.19;84.38;99590.80;1728123;81;21613;-74
2021/10/13 09:27:29;;;;;;;1.62;0.90;;;;;;;8.38;84.22;99590.08;1696589;82;21014;-72
2021/10/13 09:30:04;;;;;;;2.15;0.95;;;;;;;8.19;83.25;99596.00;1729959;81;21132;-72
2021/10/13 09:32:36;;;;;;;1.42;0.70;;;;;;;8.17;83.43;99595.21;1730775;81;21033;-72
2021/10/13 09:35:08;;;;;;;1.42;0.80;;;;;;;8.22;83.42;99594.58;1726059;81;21055;-75
2021/10/13 09:37:55;;;;;;;3.25;0.75;;;;;;;8.40;83.72;99598.68;1735087;81;21067;-74
2021/10/13 09:40:35;;;;;;;2.50;0.80;;;;;;;8.56;83.74;99602.36;1725339;81;20977;-72
2021/10/13 09:43:03;;;;;;;1.22;0.57;;;;;;;8.70;82.66;99594.83;1704311;82;21938;-73
2021/10/13 09:45:34;;;;;;;2.52;1.05;;;;;;;8.92;83.20;99601.75;1700482;82;21032;-72
2021/10/13 09:48:04;;;;;;;2.87;1.35;;;;;;;9.13;82.67;99598.66;1702429;81;21117;-74
2021/10/13 09:50:50;;;;;;;1.82;0.90;;;;;;;9.45;82.61;99603.78;1705550;81;20973;-74
2021/10/13 09:53:21;;;;;;;2.15;0.88;;;;;;;9.53;81.99;99606.90;1723506;81;21008;-73
2021/10/13 09:55:50;;;;;;;1.82;1.12;;;;;;;9.44;81.53;99606.44;1695957;81;21200;-71
2021/10/13 09:58:30;;;;;;;1.40;0.82;;;;;;;9.39;81.76;99614.48;1700981;82;21164;-72
2021/10/13 10:01:07;;;;;;;2.42;1.12;;;;;;;9.28;80.77;99617.56;1698216;82;21103;-71
2021/10/13 10:03:37;;;;;;;2.25;1.12;;;;;;;9.01;80.05;99623.95;1702567;83;21089;-72
2021/10/13 10:06:06;;;;;;;1.85;0.68;;;;;;;8.83;80.14;99626.87;1695235;83;21051;-72
2021/10/13 10:08:58;;;;;;;1.27;0.85;;;;;;;8.76;80.76;99629.33;1715862;82;21151;-74
2021/10/13 10:11:33;;;;;;;1.85;0.68;;;;;;;8.72;81.20;99627.31;1676109;83;21027;-73
2021/10/13 10:14:04;;;;;;;8.23;1.77;;;;;;;8.93;81.80;99629.47;1689121;82;21017;-72
2021/10/13 10:16:37;;;;;;;3.85;0.70;;;;;;;9.09;80.85;99635.73;1690827;82;21042;-71
2021/10/13 10:19:26;;;;;;;1.07;0.60;;;;;;;9.26;80.53;99632.41;1689823;83;21175;-72
2021/10/13 10:22:14;;;;;;;0.80;0.40;;;;;;;9.17;76.67;99631.04;1683911;82;21075;-72
2021/10/13 10:24:54;;;;;;;;;;;;;;;9.26;78.33;99625.05;1711436;81;22146;-73
2021/10/13 10:27:34;;;;;;;2.75;0.72;;;;;;;9.38;77.02;99620.59;1710723;82;20167;-70
2021/10/13 10:30:18;;;;;;;2.52;0.40;;;;;;;9.54;77.72;99619.00;1695547;83;21001;-71
2021/10/13 10:32:59;;;;;;;1.25;0.50;;;;;;;9.68;77.27;99622.76;1698268;83;21928;-68
2021/10/13 10:35:26;;;;;;;1.10;0.40;;;;;;;9.68;75.16;99620.16;1698153;83;21080;-73
2021/10/13 10:37:55;;;;;;;1.35;0.50;;;;;;;9.75;74.96;99623.73;1712435;81;21108;-72
2021/10/13 10:40:34;;;;;;;0.55;0.37;;;;;;;9.73;72.73;99615.58;1693767;83;20958;-73
2021/10/13 10:43:05;;;;;;;1.20;0.42;;;;;;;9.81;72.87;99608.26;1692937;83;20999;-74
2021/10/13 10:45:42;;;;;;;2.10;0.53;;;;;;;10.00;75.49;99619.53;1686095;83;20923;-73
2021/10/13 10:48:13;;;;;;;1.02;0.50;;;;;;;10.05;73.25;99620.17;1689788;82;21453;-71
2021/10/13 10:50:57;;;;;;;3.22;0.68;;;;;;;10.13;74.98;99625.47;1689878;82;20989;-72
2021/10/13 10:53:38;;;;;;;1.52;0.80;;;;;;;10.22;74.57;99625.03;1690598;82;21508;-72
2021/10/13 10:56:27;;;;;;;1.12;0.40;;;;;;;10.20;73.76;99619.06;1698784;82;21052;-75
2021/10/13 10:59:11;;;;;;;1.47;0.85;;;;;;;9.99;73.13;99633.47;1732903;81;20993;-72
2021/10/13 11:01:42;;;;;;;0.82;0.50;;;;;;;10.02;75.13;99635.94;1736353;81;22526;-72
2021/10/13 11:04:12;;;;;;;0.70;0.40;;;;;;;10.12;74.68;99631.62;1732039;81;21013;-73
2021/10/13 11:06:40;;;;;;;1.40;0.60;;;;;;;10.12;73.47;99635.53;1732120;81;20997;-74
2021/10/13 11:09:12;;;;;;;0.85;0.40;;;;;;;10.14;74.37;99636.28;1732247;81;21568;-79
2021/10/13 11:11:48;;;;;;;1.95;0.40;;;;;;;10.19;72.03;99636.45;1738203;81;21008;-76
2021/10/13 11:14:24;;;;;;;1.57;0.53;;;;;;;10.20;74.33;99642.55;1734348;81;22023;-72
2021/10/13 11:16:57;;;;;;;0.60;0.50;;;;;;;10.33;74.68;99641.05;1733104;81;21079;-74
2021/10/13 11:19:31;;;;;;;85.65;14.85;;;;;;;10.45;73.68;99643.09;1731405;80;21036;-74
2021/10/13 11:22:05;;;;;;;2.17;0.70;;;;;;;10.71;74.34;99640.98;1730272;81;20961;-73
2021/10/13 11:24:35;;;;;;;0.68;0.50;;;;;;;10.79;73.75;99640.15;1734117;81;20945;-75
2021/10/13 11:27:02;;;;;;;1.20;0.35;;;;;;;10.62;69.34;99657.95;1708363;82;21586;-71
2021/10/13 11:29:36;;;;;;;0.60;0.45;;;;;;;10.37;70.80;99656.97;1730647;81;28155;-74
2021/10/13 11:32:15;;;;;;;2.35;0.70;;;;;;;10.13;71.00;99674.58;1734568;81;21034;-74
2021/10/13 11:35:04;;;;;;;1.52;0.50;;;;;;;9.86;71.77;99674.09;1730353;81;21014;-74
2021/10/13 11:38:01;;;;;;;11.45;2.25;;;;;;;9.76;70.52;99675.41;1722236;81;20989;-72
2021/10/13 11:40:50;;;;;;;3.45;0.62;;;;;;;9.64;71.99;99692.45;1723603;81;20983;-72
2021/10/13 11:43:26;;;;;;;155.27;26.33;;;;;;;9.37;71.91;99691.88;1731383;80;21560;-73
2021/10/13 11:46:06;;;;;;;7.45;1.75;;;;;;;9.01;72.84;99691.20;1722617;80;21014;-73
2021/10/13 11:48:36;;;;;;;1.75;0.75;;;;;;;8.89;73.10;99693.02;1734703;81;21076;-74
2021/10/13 11:51:10;;;;;;;21.33;3.77;;;;;;;8.87;73.30;99706.55;1728348;81;20989;-74
2021/10/13 11:53:37;;;;;;;20.82;4.08;;;;;;;8.80;73.34;99709.02;1729316;80;21308;-71
2021/10/13 11:56:11;;;;;;;16.00;3.02;;;;;;;8.71;73.79;99703.27;1726302;80;21050;-74
2021/10/13 11:58:42;;;;;;;5.95;1.37;;;;;;;8.67;73.87;99699.08;1724401;81;21029;-73
2021/10/13 12:01:28;;;;;;;69.47;10.90;;;;;;;8.56;73.88;99699.95;1689809;83;20955;-73
2021/10/13 12:04:12;;;;;;;9.33;1.57;;;;;;;8.51;74.10;99701.88;1674858;82;25714;-74
2021/10/13 12:06:45;;;;;;;26.27;3.77;;;;;;;8.46;73.80;99710.34;1727293;81;21018;-73
2021/10/13 12:09:12;;;;;;;0.78;0.45;;;;;;;8.45;74.21;99708.17;1726165;81;21025;-73
2021/10/13 12:11:39;;;;;;;0.85;0.50;;;;;;;8.52;74.04;99704.90;1721278;81;20981;-75
2021/10/13 12:14:14;;;;;;;11.43;2.40;;;;;;;8.58;74.04;99704.66;1729557;81;21114;-76
2021/10/13 12:16:41;;;;;;;86.67;10.10;;;;;;;8.62;74.30;99710.12;1701816;82;21010;-75
2021/10/13 12:19:16;;;;;;;114.77;15.63;;;;;;;8.71;74.41;99711.08;1732609;81;21415;-72
2021/10/13 12:22:03;;;;;;;88.67;14.05;;;;;;;8.89;74.96;99717.75;1722750;81;21072;-73